sensor_id;sensor_type;location;lat;lon;timestamp;pressure;altitude;pressure_sealevel;temperature;humidity
54978;BME280;40873;47.522;19.106;2023-05-15T00:02:24;99641.75;;;11.95;100.00
54978;BME280;40873;47.522;19.106;2023-05-15T00:04:52;99634.56;;;11.97;100.00
54978;BME280;40873;47.522;19.106;2023-05-15T00:07:19;99639.88;;;11.97;100.00
54978;BME280;40873;47.522;19.106;2023-05-15T00:09:46;99636.13;;;11.99;100.00
54978;BME280;40873;47.522;19.106;2023-05-15T00:12:13;99639.50;;;12.01;100.00
54978;BME280;40873;47.522;19.106;2023-05-15T00:14:41;99631.56;;;12.01;100.00
54978;BME280;40873;47.522;19.106;2023-05-15T00:17:08;99630.84;;;11.99;100.00
54978;BME280;40873;47.522;19.106;2023-05-15T00:19:35;99630.97;;;11.98;100.00
54978;BME280;40873;47.522;19.106;2023-05-15T00:22:02;99641.53;;;11.98;100.00
54978;BME280;40873;47.522;19.106;2023-05-15T00:24:30;99642.59;;;11.95;100.00
54978;BME280;40873;47.522;19.106;2023-05-15T00:26:58;99646.84;;;11.98;100.00
54978;BME280;40873;47.522;19.106;2023-05-15T00:29:25;99661.00;;;11.97;100.00
54978;BME280;40873;47.522;19.106;2023-05-15T00:31:52;99655.47;;;12.00;100.00
54978;BME280;40873;47.522;19.106;2023-05-15T00:34:20;99658.84;;;12.13;100.00
54978;BME280;40873;47.522;19.106;2023-05-15T00:36:50;99663.19;;;12.14;100.00
54978;BME280;40873;47.522;19.106;2023-05-15T00:39:17;99654.03;;;12.29;100.00
54978;BME280;40873;47.522;19.106;2023-05-15T00:41:45;99649.63;;;12.19;100.00
54978;BME280;40873;47.522;19.106;2023-05-15T00:44:14;99658.84;;;12.13;100.00
54978;BME280;40873;47.522;19.106;2023-05-15T00:46:44;99651.88;;;12.12;100.00
54978;BME280;40873;47.522;19.106;2023-05-15T00:49:12;99646.72;;;12.11;100.00
54978;BME280;40873;47.522;19.106;2023-05-15T00:51:40;99639.03;;;12.07;100.00
54978;BME280;40873;47.522;19.106;2023-05-15T00:54:10;99634.56;;;12.08;100.00
54978;BME280;40873;47.522;19.106;2023-05-15T00:56:38;99634.69;;;12.06;100.00
54978;BME280;40873;47.522;19.106;2023-05-15T00:59:06;99641.53;;;12.09;100.00
54978;BME280;40873;47.522;19.106;2023-05-15T01:01:33;99645.97;;;12.08;100.00
54978;BME280;40873;47.522;19.106;2023-05-15T01:04:01;99635.41;;;12.08;100.00
54978;BME280;40873;47.522;19.106;2023-05-15T01:06:29;99626.63;;;12.08;100.00
54978;BME280;40873;47.522;19.106;2023-05-15T01:08:58;99619.66;;;12.07;100.00
54978;BME280;40873;47.522;19.106;2023-05-15T01:11:27;99616.31;;;12.05;100.00
54978;BME280;40873;47.522;19.106;2023-05-15T01:14:03;99611.03;;;12.05;100.00
54978;BME280;40873;47.522;19.106;2023-05-15T01:16:32;99615.47;;;12.04;100.00
54978;BME280;40873;47.522;19.106;2023-05-15T01:18:59;99614.63;;;12.04;100.00
54978;BME280;40873;47.522;19.106;2023-05-15T01:21:40;99603.09;;;12.05;100.00
54978;BME280;40873;47.522;19.106;2023-05-15T01:28:11;99607.63;;;12.03;100.00
54978;BME280;40873;47.522;19.106;2023-05-15T01:30:38;99598.88;;;12.02;100.00
54978;BME280;40873;47.522;19.106;2023-05-15T01:33:28;99602.34;;;12.03;100.00
54978;BME280;40873;47.522;19.106;2023-05-15T01:36:29;99603.22;;;12.03;100.00
54978;BME280;40873;47.522;19.106;2023-05-15T01:39:01;99610.28;;;12.03;100.00
54978;BME280;40873;47.522;19.106;2023-05-15T01:41:35;99615.56;;;12.03;100.00
54978;BME280;40873;47.522;19.106;2023-05-15T01:44:12;99611.25;;;12.02;100.00
54978;BME280;40873;47.522;19.106;2023-05-15T01:46:45;99597.31;;;12.00;100.00
54978;BME280;40873;47.522;19.106;2023-05-15T01:49:17;99582.16;;;12.02;100.00
54978;BME280;40873;47.522;19.106;2023-05-15T01:51:47;99572.56;;;12.01;100.00
54978;BME280;40873;47.522;19.106;2023-05-15T01:54:17;99568.38;;;11.98;100.00
54978;BME280;40873;47.522;19.106;2023-05-15T01:56:44;99556.97;;;11.98;100.00
54978;BME280;40873;47.522;19.106;2023-05-15T01:59:12;99553.47;;;11.97;100.00
54978;BME280;40873;47.522;19.106;2023-05-15T02:01:40;99543.13;;;11.94;100.00
54978;BME280;40873;47.522;19.106;2023-05-15T02:04:08;99553.09;;;11.91;100.00
54978;BME280;40873;47.522;19.106;2023-05-15T02:06:36;99567.38;;;11.88;100.00
54978;BME280;40873;47.522;19.106;2023-05-15T02:09:05;99572.09;;;11.85;100.00
54978;BME280;40873;47.522;19.106;2023-05-15T02:11:34;99577.38;;;11.85;100.00
54978;BME280;40873;47.522;19.106;2023-05-15T02:14:03;99571.13;;;11.86;100.00
54978;BME280;40873;47.522;19.106;2023-05-15T02:16:31;99580.00;;;11.85;100.00
54978;BME280;40873;47.522;19.106;2023-05-15T02:18:58;99589.63;;;11.86;100.00
54978;BME280;40873;47.522;19.106;2023-05-15T02:21:25;99602.03;;;11.96;100.00
54978;BME280;40873;47.522;19.106;2023-05-15T02:23:51;99598.88;;;12.02;100.00
54978;BME280;40873;47.522;19.106;2023-05-15T02:26:22;99599.00;;;12.12;100.00
54978;BME280;40873;47.522;19.106;2023-05-15T02:31:34;99608.25;;;12.06;100.00
54978;BME280;40873;47.522;19.106;2023-05-15T02:34:17;99609.09;;;12.18;100.00
54978;BME280;40873;47.522;19.106;2023-05-15T02:36:47;99612.00;;;12.04;100.00
54978;BME280;40873;47.522;19.106;2023-05-15T02:39:19;99619.78;;;12.05;100.00
54978;BME280;40873;47.522;19.106;2023-05-15T02:41:50;99626.66;;;11.97;100.00
54978;BME280;40873;47.522;19.106;2023-05-15T02:44:19;99626.06;;;12.04;100.00
54978;BME280;40873;47.522;19.106;2023-05-15T02:46:47;99615.81;;;12.00;100.00
54978;BME280;40873;47.522;19.106;2023-05-15T02:49:16;99616.66;;;12.00;100.00
54978;BME280;40873;47.522;19.106;2023-05-15T02:51:43;99614.16;;;11.99;100.00
54978;BME280;40873;47.522;19.106;2023-05-15T02:54:10;99609.81;;;11.98;100.00
54978;BME280;40873;47.522;19.106;2023-05-15T02:56:37;99609.81;;;11.98;100.00
54978;BME280;40873;47.522;19.106;2023-05-15T02:59:04;99610.53;;;12.00;100.00
54978;BME280;40873;47.522;19.106;2023-05-15T03:01:31;99608.16;;;11.97;100.00
54978;BME280;40873;47.522;19.106;2023-05-15T03:03:58;99608.16;;;11.97;100.00
54978;BME280;40873;47.522;19.106;2023-05-15T03:06:25;99605.38;;;11.98;100.00
54978;BME280;40873;47.522;19.106;2023-05-15T03:08:55;99592.03;;;12.00;100.00
54978;BME280;40873;47.522;19.106;2023-05-15T03:11:22;99592.03;;;12.00;100.00
54978;BME280;40873;47.522;19.106;2023-05-15T03:13:48;99588.53;;;11.99;100.00
54978;BME280;40873;47.522;19.106;2023-05-15T03:16:15;99597.31;;;12.00;100.00
54978;BME280;40873;47.522;19.106;2023-05-15T03:18:42;99589.13;;;12.03;100.00
54978;BME280;40873;47.522;19.106;2023-05-15T03:21:09;99581.94;;;12.05;100.00
54978;BME280;40873;47.522;19.106;2023-05-15T03:23:36;99570.41;;;12.06;100.00
54978;BME280;40873;47.522;19.106;2023-05-15T03:26:04;99561.50;;;12.07;100.00
54978;BME280;40873;47.522;19.106;2023-05-15T03:28:30;99567.63;;;12.07;100.00
54978;BME280;40873;47.522;19.106;2023-05-15T03:30:58;99562.47;;;12.06;100.00
54978;BME280;40873;47.522;19.106;2023-05-15T03:33:24;99561.84;;;12.02;100.00
54978;BME280;40873;47.522;19.106;2023-05-15T03:35:52;99555.63;;;12.03;100.00
54978;BME280;40873;47.522;19.106;2023-05-15T03:38:18;99547.56;;;12.05;100.00
54978;BME280;40873;47.522;19.106;2023-05-15T03:40:46;99532.56;;;12.05;100.00
54978;BME280;40873;47.522;19.106;2023-05-15T03:43:16;99528.94;;;12.06;100.00
54978;BME280;40873;47.522;19.106;2023-05-15T03:45:43;99527.13;;;12.07;100.00
54978;BME280;40873;47.522;19.106;2023-05-15T03:48:10;99544.09;;;12.04;100.00
54978;BME280;40873;47.522;19.106;2023-05-15T03:50:37;99537.00;;;12.05;100.00
54978;BME280;40873;47.522;19.106;2023-05-15T03:53:05;99531.59;;;12.06;100.00
54978;BME280;40873;47.522;19.106;2023-05-15T03:55:32;99530.50;;;12.09;100.00
54978;BME280;40873;47.522;19.106;2023-05-15T03:58:01;99528.09;;;12.06;100.00
54978;BME280;40873;47.522;19.106;2023-05-15T04:00:28;99536.75;;;12.08;100.00
54978;BME280;40873;47.522;19.106;2023-05-15T04:02:55;99536.88;;;12.06;100.00
54978;BME280;40873;47.522;19.106;2023-05-15T04:05:22;99529.66;;;12.08;100.00
54978;BME280;40873;47.522;19.106;2023-05-15T04:07:49;99528.09;;;12.06;100.00
54978;BME280;40873;47.522;19.106;2023-05-15T04:10:16;99531.47;;;12.08;100.00
54978;BME280;40873;47.522;19.106;2023-05-15T04:12:43;99521.72;;;12.08;100.00
54978;BME280;40873;47.522;19.106;2023-05-15T04:17:41;99521.50;;;12.12;100.00
54978;BME280;40873;47.522;19.106;2023-05-15T04:20:09;99515.09;;;12.14;100.00
54978;BME280;40873;47.522;19.106;2023-05-15T04:22:36;99525.31;;;12.19;100.00
54978;BME280;40873;47.522;19.106;2023-05-15T04:25:04;99521.59;;;12.21;100.00
54978;BME280;40873;47.522;19.106;2023-05-15T04:27:31;99519.66;;;12.23;100.00
54978;BME280;40873;47.522;19.106;2023-05-15T04:29:58;99529.38;;;12.23;100.00
54978;BME280;40873;47.522;19.106;2023-05-15T04:32:25;99529.03;;;12.27;100.00
54978;BME280;40873;47.522;19.106;2023-05-15T04:34:53;99515.81;;;12.27;100.00
54978;BME280;40873;47.522;19.106;2023-05-15T04:37:20;99512.19;;;12.28;100.00
54978;BME280;40873;47.522;19.106;2023-05-15T04:39:47;99519.28;;;12.28;100.00
54978;BME280;40873;47.522;19.106;2023-05-15T04:42:14;99532.38;;;12.29;100.00
54978;BME280;40873;47.522;19.106;2023-05-15T04:44:41;99543.81;;;12.30;100.00
54978;BME280;40873;47.522;19.106;2023-05-15T04:47:09;99536.69;;;12.30;100.00
54978;BME280;40873;47.522;19.106;2023-05-15T04:49:36;99533.84;;;12.33;100.00
54978;BME280;40873;47.522;19.106;2023-05-15T04:52:03;99539.00;;;12.35;100.00
54978;BME280;40873;47.522;19.106;2023-05-15T04:54:30;99542.59;;;12.34;100.00
54978;BME280;40873;47.522;19.106;2023-05-15T04:56:57;99532.88;;;12.34;100.00
54978;BME280;40873;47.522;19.106;2023-05-15T04:59:24;99561.13;;;12.34;100.00
54978;BME280;40873;47.522;19.106;2023-05-15T05:01:51;99580.97;;;12.28;100.00
54978;BME280;40873;47.522;19.106;2023-05-15T05:04:18;99586.50;;;12.25;100.00
54978;BME280;40873;47.522;19.106;2023-05-15T05:06:46;99580.13;;;12.28;100.00
54978;BME280;40873;47.522;19.106;2023-05-15T05:09:13;99575.31;;;12.33;100.00
54978;BME280;40873;47.522;19.106;2023-05-15T05:11:40;99582.75;;;12.28;100.00
54978;BME280;40873;47.522;19.106;2023-05-15T05:14:11;99580.13;;;12.28;100.00
54978;BME280;40873;47.522;19.106;2023-05-15T05:16:38;99583.38;;;12.31;100.00
54978;BME280;40873;47.522;19.106;2023-05-15T05:19:05;99581.09;;;12.38;100.00
54978;BME280;40873;47.522;19.106;2023-05-15T05:21:32;99590.31;;;12.44;100.00
54978;BME280;40873;47.522;19.106;2023-05-15T05:23:59;99600.06;;;12.43;100.00
54978;BME280;40873;47.522;19.106;2023-05-15T05:26:26;99606.09;;;12.45;100.00
54978;BME280;40873;47.522;19.106;2023-05-15T05:28:53;99604.63;;;12.52;100.00
54978;BME280;40873;47.522;19.106;2023-05-15T05:31:20;99601.72;;;12.55;100.00
54978;BME280;40873;47.522;19.106;2023-05-15T05:33:48;99598.09;;;12.56;100.00
54978;BME280;40873;47.522;19.106;2023-05-15T05:36:18;99590.66;;;12.61;100.00
54978;BME280;40873;47.522;19.106;2023-05-15T05:38:45;99585.94;;;12.65;100.00
54978;BME280;40873;47.522;19.106;2023-05-15T05:41:12;99575.25;;;12.67;100.00
54978;BME280;40873;47.522;19.106;2023-05-15T05:43:39;99586.66;;;12.67;100.00
54978;BME280;40873;47.522;19.106;2023-05-15T05:46:06;99588.91;;;12.72;100.00
54978;BME280;40873;47.522;19.106;2023-05-15T05:48:33;99593.72;;;12.78;100.00
54978;BME280;40873;47.522;19.106;2023-05-15T05:51:00;99600.81;;;12.88;100.00
54978;BME280;40873;47.522;19.106;2023-05-15T05:53:27;99601.00;;;12.97;100.00
54978;BME280;40873;47.522;19.106;2023-05-15T05:55:54;99603.53;;;12.98;100.00
54978;BME280;40873;47.522;19.106;2023-05-15T05:58:21;99608.69;;;13.00;100.00
54978;BME280;40873;47.522;19.106;2023-05-15T06:00:52;99615.69;;;13.01;100.00
54978;BME280;40873;47.522;19.106;2023-05-15T06:03:20;99619.19;;;13.01;100.00
54978;BME280;40873;47.522;19.106;2023-05-15T06:05:47;99609.88;;;13.07;100.00
54978;BME280;40873;47.522;19.106;2023-05-15T06:08:14;99597.56;;;13.17;100.00
54978;BME280;40873;47.522;19.106;2023-05-15T06:10:41;99601.97;;;13.28;100.00
54978;BME280;40873;47.522;19.106;2023-05-15T06:13:08;99608.25;;;13.48;100.00
54978;BME280;40873;47.522;19.106;2023-05-15T06:15:35;99607.75;;;13.54;100.00
54978;BME280;40873;47.522;19.106;2023-05-15T06:18:02;99618.09;;;13.57;100.00
54978;BME280;40873;47.522;19.106;2023-05-15T06:20:29;99618.31;;;13.65;100.00
54978;BME280;40873;47.522;19.106;2023-05-15T06:22:56;99622.81;;;13.74;100.00
54978;BME280;40873;47.522;19.106;2023-05-15T06:25:23;99624.66;;;13.83;100.00
54978;BME280;40873;47.522;19.106;2023-05-15T06:27:53;99627.06;;;13.86;100.00
54978;BME280;40873;47.522;19.106;2023-05-15T06:30:19;99642.16;;;13.86;100.00
54978;BME280;40873;47.522;19.106;2023-05-15T06:32:47;99634.19;;;13.86;100.00
54978;BME280;40873;47.522;19.106;2023-05-15T06:35:14;99625.81;;;13.90;100.00
54978;BME280;40873;47.522;19.106;2023-05-15T06:37:41;99627.94;;;13.96;100.00
54978;BME280;40873;47.522;19.106;2023-05-15T06:40:08;99631.38;;;14.08;100.00
54978;BME280;40873;47.522;19.106;2023-05-15T06:42:35;99620.38;;;14.13;100.00
54978;BME280;40873;47.522;19.106;2023-05-15T06:45:02;99619.88;;;14.29;100.00
54978;BME280;40873;47.522;19.106;2023-05-15T06:47:30;99607.91;;;14.44;100.00
54978;BME280;40873;47.522;19.106;2023-05-15T06:49:57;99600.09;;;14.42;100.00
54978;BME280;40873;47.522;19.106;2023-05-15T06:52:24;99590.16;;;14.44;100.00
54978;BME280;40873;47.522;19.106;2023-05-15T06:54:51;99595.66;;;14.52;100.00
54978;BME280;40873;47.522;19.106;2023-05-15T06:57:18;99590.94;;;14.56;100.00
54978;BME280;40873;47.522;19.106;2023-05-15T06:59:45;99594.13;;;14.60;100.00
54978;BME280;40873;47.522;19.106;2023-05-15T07:02:12;99588.00;;;14.59;100.00
54978;BME280;40873;47.522;19.106;2023-05-15T07:04:39;99592.63;;;14.57;100.00
54978;BME280;40873;47.522;19.106;2023-05-15T07:07:09;99602.44;;;14.76;100.00
54978;BME280;40873;47.522;19.106;2023-05-15T07:09:36;99608.88;;;14.93;100.00
54978;BME280;40873;47.522;19.106;2023-05-15T07:12:04;99610.97;;;15.08;100.00
54978;BME280;40873;47.522;19.106;2023-05-15T07:14:31;99605.13;;;15.24;100.00
54978;BME280;40873;47.522;19.106;2023-05-15T07:17:00;99608.31;;;15.47;100.00
54978;BME280;40873;47.522;19.106;2023-05-15T07:19:27;99615.72;;;15.53;100.00
54978;BME280;40873;47.522;19.106;2023-05-15T07:21:54;99613.22;;;15.61;100.00
54978;BME280;40873;47.522;19.106;2023-05-15T07:24:21;99626.25;;;15.65;100.00
54978;BME280;40873;47.522;19.106;2023-05-15T07:26:48;99630.13;;;15.60;100.00
54978;BME280;40873;47.522;19.106;2023-05-15T07:29:24;99631.97;;;15.60;100.00
54978;BME280;40873;47.522;19.106;2023-05-15T07:31:52;99637.16;;;15.52;100.00
54978;BME280;40873;47.522;19.106;2023-05-15T07:34:19;99646.38;;;15.48;100.00
54978;BME280;40873;47.522;19.106;2023-05-15T07:36:46;99637.28;;;15.41;100.00
54978;BME280;40873;47.522;19.106;2023-05-15T07:39:13;99628.78;;;15.37;100.00
54978;BME280;40873;47.522;19.106;2023-05-15T07:41:40;99620.78;;;15.27;100.00
54978;BME280;40873;47.522;19.106;2023-05-15T07:44:07;99612.94;;;15.26;100.00
54978;BME280;40873;47.522;19.106;2023-05-15T07:46:34;99605.13;;;15.15;100.00
54978;BME280;40873;47.522;19.106;2023-05-15T07:49:01;99609.19;;;15.19;100.00
54978;BME280;40873;47.522;19.106;2023-05-15T07:51:28;99597.84;;;15.26;100.00
54978;BME280;40873;47.522;19.106;2023-05-15T07:53:55;99603.88;;;15.38;100.00
54978;BME280;40873;47.522;19.106;2023-05-15T07:56:22;99596.56;;;15.50;100.00
54978;BME280;40873;47.522;19.106;2023-05-15T07:58:49;99605.25;;;15.61;100.00
54978;BME280;40873;47.522;19.106;2023-05-15T08:01:16;99613.03;;;15.82;100.00
54978;BME280;40873;47.522;19.106;2023-05-15T08:03:43;99625.47;;;15.92;100.00
54978;BME280;40873;47.522;19.106;2023-05-15T08:06:11;99634.69;;;15.97;100.00
54978;BME280;40873;47.522;19.106;2023-05-15T08:08:37;99637.38;;;15.97;100.00
54978;BME280;40873;47.522;19.106;2023-05-15T08:11:04;99631.19;;;15.97;100.00
54978;BME280;40873;47.522;19.106;2023-05-15T08:13:31;99631.63;;;16.02;100.00
54978;BME280;40873;47.522;19.106;2023-05-15T08:15:59;99627.06;;;16.22;100.00
54978;BME280;40873;47.522;19.106;2023-05-15T08:18:25;99635.06;;;16.22;100.00
54978;BME280;40873;47.522;19.106;2023-05-15T08:20:53;99637.25;;;16.26;100.00
54978;BME280;40873;47.522;19.106;2023-05-15T08:23:19;99626.09;;;16.23;100.00
54978;BME280;40873;47.522;19.106;2023-05-15T08:25:46;99631.09;;;16.26;100.00
54978;BME280;40873;47.522;19.106;2023-05-15T08:28:13;99639.66;;;16.29;100.00
54978;BME280;40873;47.522;19.106;2023-05-15T08:30:40;99644.03;;;16.21;100.00
54978;BME280;40873;47.522;19.106;2023-05-15T08:33:07;99641.09;;;16.14;100.00
54978;BME280;40873;47.522;19.106;2023-05-15T08:35:34;99648.25;;;16.13;100.00
54978;BME280;40873;47.522;19.106;2023-05-15T08:38:01;99634.28;;;16.02;100.00
54978;BME280;40873;47.522;19.106;2023-05-15T08:40:29;99633.84;;;16.06;100.00
54978;BME280;40873;47.522;19.106;2023-05-15T08:43:12;99640.06;;;16.25;100.00
54978;BME280;40873;47.522;19.106;2023-05-15T08:45:42;99626.19;;;16.31;100.00
54978;BME280;40873;47.522;19.106;2023-05-15T08:48:16;99631.09;;;16.26;100.00
54978;BME280;40873;47.522;19.106;2023-05-15T08:50:43;99621.59;;;16.23;100.00
54978;BME280;40873;47.522;19.106;2023-05-15T08:53:12;99623.41;;;16.23;100.00
54978;BME280;40873;47.522;19.106;2023-05-15T08:55:39;99621.25;;;16.36;100.00
54978;BME280;40873;47.522;19.106;2023-05-15T08:58:08;99618.53;;;16.45;100.00
54978;BME280;40873;47.522;19.106;2023-05-15T09:00:35;99613.56;;;16.88;100.00
54978;BME280;40873;47.522;19.106;2023-05-15T09:03:12;99618.84;;;17.15;100.00
54978;BME280;40873;47.522;19.106;2023-05-15T09:05:40;99620.19;;;17.02;100.00
54978;BME280;40873;47.522;19.106;2023-05-15T09:08:07;99625.22;;;17.22;100.00
54978;BME280;40873;47.522;19.106;2023-05-15T09:10:34;99630.72;;;17.39;100.00
54978;BME280;40873;47.522;19.106;2023-05-15T09:13:02;99640.59;;;16.93;100.00
54978;BME280;40873;47.522;19.106;2023-05-15T09:15:31;99636.56;;;17.24;100.00
54978;BME280;40873;47.522;19.106;2023-05-15T09:17:58;99643.66;;;16.98;100.00
54978;BME280;40873;47.522;19.106;2023-05-15T09:22:59;99645.09;;;16.92;100.00
54978;BME280;40873;47.522;19.106;2023-05-15T09:25:37;99656.00;;;17.17;100.00
54978;BME280;40873;47.522;19.106;2023-05-15T09:28:05;99658.34;;;17.02;100.00
54978;BME280;40873;47.522;19.106;2023-05-15T09:30:33;99662.56;;;17.05;100.00
54978;BME280;40873;47.522;19.106;2023-05-15T09:33:02;99666.41;;;17.10;100.00
54978;BME280;40873;47.522;19.106;2023-05-15T09:35:35;99672.75;;;17.09;100.00
54978;BME280;40873;47.522;19.106;2023-05-15T09:38:07;99669.63;;;17.14;100.00
54978;BME280;40873;47.522;19.106;2023-05-15T09:40:35;99677.97;;;16.83;100.00
54978;BME280;40873;47.522;19.106;2023-05-15T09:43:03;99677.53;;;17.06;100.00
54978;BME280;40873;47.522;19.106;2023-05-15T09:45:30;99676.19;;;17.19;100.00
54978;BME280;40873;47.522;19.106;2023-05-15T09:48:03;99676.06;;;17.39;100.00
54978;BME280;40873;47.522;19.106;2023-05-15T09:50:36;99673.91;;;17.42;100.00
54978;BME280;40873;47.522;19.106;2023-05-15T09:53:04;99676.47;;;17.52;100.00
54978;BME280;40873;47.522;19.106;2023-05-15T09:55:33;99678.00;;;17.72;100.00
54978;BME280;40873;47.522;19.106;2023-05-15T09:58:14;99680.19;;;17.59;100.00
54978;BME280;40873;47.522;19.106;2023-05-15T10:00:43;99670.91;;;17.63;100.00
54978;BME280;40873;47.522;19.106;2023-05-15T10:03:16;99675.63;;;17.69;100.00
54978;BME280;40873;47.522;19.106;2023-05-15T10:05:43;99672.44;;;17.66;100.00
54978;BME280;40873;47.522;19.106;2023-05-15T10:08:11;99680.28;;;17.85;100.00
54978;BME280;40873;47.522;19.106;2023-05-15T10:10:38;99680.22;;;17.95;100.00
54978;BME280;40873;47.522;19.106;2023-05-15T10:13:06;99682.72;;;17.96;100.00
54978;BME280;40873;47.522;19.106;2023-05-15T10:15:34;99682.28;;;17.83;100.00
54978;BME280;40873;47.522;19.106;2023-05-15T10:18:02;99682.13;;;17.49;100.00
54978;BME280;40873;47.522;19.106;2023-05-15T10:20:32;99684.13;;;17.47;100.00
54978;BME280;40873;47.522;19.106;2023-05-15T10:23:03;99678.69;;;17.57;100.00
54978;BME280;40873;47.522;19.106;2023-05-15T10:25:41;99680.97;;;17.51;100.00
54978;BME280;40873;47.522;19.106;2023-05-15T10:28:11;99685.53;;;17.59;100.00
54978;BME280;40873;47.522;19.106;2023-05-15T10:30:41;99677.63;;;17.67;100.00
54978;BME280;40873;47.522;19.106;2023-05-15T10:33:08;99678.16;;;18.15;100.00
54978;BME280;40873;47.522;19.106;2023-05-15T10:35:40;99675.28;;;17.82;100.00
54978;BME280;40873;47.522;19.106;2023-05-15T10:38:09;99680.22;;;17.77;100.00
54978;BME280;40873;47.522;19.106;2023-05-15T10:40:39;99675.09;;;17.66;100.00
54978;BME280;40873;47.522;19.106;2023-05-15T10:43:08;99674.34;;;17.56;100.00
54978;BME280;40873;47.522;19.106;2023-05-15T10:45:36;99684.25;;;17.63;100.00
54978;BME280;40873;47.522;19.106;2023-05-15T10:48:04;99686.31;;;17.87;100.00
54978;BME280;40873;47.522;19.106;2023-05-15T10:50:35;99690.66;;;18.14;100.00
54978;BME280;40873;47.522;19.106;2023-05-15T10:53:03;99681.19;;;18.20;97.57
54978;BME280;40873;47.522;19.106;2023-05-15T10:55:35;99683.38;;;18.50;97.17
54978;BME280;40873;47.522;19.106;2023-05-15T10:58:08;99686.94;;;18.33;99.50
54978;BME280;40873;47.522;19.106;2023-05-15T11:00:42;99682.22;;;18.53;99.96
54978;BME280;40873;47.522;19.106;2023-05-15T11:03:15;99673.47;;;18.69;96.54
54978;BME280;40873;47.522;19.106;2023-05-15T11:06:14;99689.31;;;18.70;92.72
54978;BME280;40873;47.522;19.106;2023-05-15T11:08:41;99682.47;;;18.42;92.62
54978;BME280;40873;47.522;19.106;2023-05-15T11:14:15;99681.84;;;18.48;92.47
54978;BME280;40873;47.522;19.106;2023-05-15T11:19:22;99693.13;;;19.02;90.75
54978;BME280;40873;47.522;19.106;2023-05-15T11:24:31;99661.41;;;20.21;84.59
54978;BME280;40873;47.522;19.106;2023-05-15T11:27:00;99657.41;;;20.25;80.36
54978;BME280;40873;47.522;19.106;2023-05-15T11:29:27;99655.25;;;20.04;83.39
54978;BME280;40873;47.522;19.106;2023-05-15T11:31:54;99660.97;;;19.93;85.10
54978;BME280;40873;47.522;19.106;2023-05-15T11:34:34;99660.78;;;19.86;84.25
54978;BME280;40873;47.522;19.106;2023-05-15T11:37:01;99660.97;;;19.85;89.79
54978;BME280;40873;47.522;19.106;2023-05-15T11:39:28;99665.84;;;19.65;88.15
54978;BME280;40873;47.522;19.106;2023-05-15T11:41:55;99651.22;;;19.18;86.70
54978;BME280;40873;47.522;19.106;2023-05-15T11:44:24;99661.94;;;18.68;86.43
54978;BME280;40873;47.522;19.106;2023-05-15T11:46:54;99666.06;;;18.62;88.41
54978;BME280;40873;47.522;19.106;2023-05-15T11:49:25;99656.00;;;18.90;89.97
54978;BME280;40873;47.522;19.106;2023-05-15T11:51:52;99655.63;;;18.77;88.13
54978;BME280;40873;47.522;19.106;2023-05-15T11:54:19;99657.00;;;18.89;89.34
54978;BME280;40873;47.522;19.106;2023-05-15T11:56:47;99650.44;;;18.76;88.31
54978;BME280;40873;47.522;19.106;2023-05-15T11:59:13;99651.44;;;18.75;90.69
54978;BME280;40873;47.522;19.106;2023-05-15T12:01:42;99654.38;;;18.63;88.45
54978;BME280;40873;47.522;19.106;2023-05-15T12:04:14;99665.81;;;18.48;89.08
54978;BME280;40873;47.522;19.106;2023-05-15T12:06:42;99665.28;;;18.36;90.27
54978;BME280;40873;47.522;19.106;2023-05-15T12:09:14;99660.19;;;18.25;94.26
54978;BME280;40873;47.522;19.106;2023-05-15T12:11:54;99666.28;;;18.09;98.57
54978;BME280;40873;47.522;19.106;2023-05-15T12:14:28;99660.94;;;18.09;99.21
54978;BME280;40873;47.522;19.106;2023-05-15T12:16:59;99671.03;;;18.23;100.00
54978;BME280;40873;47.522;19.106;2023-05-15T12:19:29;99668.59;;;18.30;98.00
54978;BME280;40873;47.522;19.106;2023-05-15T12:21:56;99663.13;;;18.40;98.62
54978;BME280;40873;47.522;19.106;2023-05-15T12:24:25;99661.66;;;18.45;97.72
54978;BME280;40873;47.522;19.106;2023-05-15T12:26:52;99670.66;;;18.44;97.52
54978;BME280;40873;47.522;19.106;2023-05-15T12:29:23;99665.94;;;18.38;96.88
54978;BME280;40873;47.522;19.106;2023-05-15T12:31:51;99671.47;;;18.37;98.38
54978;BME280;40873;47.522;19.106;2023-05-15T12:34:20;99667.47;;;18.41;100.00
54978;BME280;40873;47.522;19.106;2023-05-15T12:36:47;99673.63;;;18.41;99.72
54978;BME280;40873;47.522;19.106;2023-05-15T12:39:14;99670.66;;;18.44;96.70
54978;BME280;40873;47.522;19.106;2023-05-15T12:41:42;99671.47;;;18.37;96.50
54978;BME280;40873;47.522;19.106;2023-05-15T12:44:17;99671.38;;;18.28;99.74
54978;BME280;40873;47.522;19.106;2023-05-15T12:46:45;99667.84;;;18.20;100.00
54978;BME280;40873;47.522;19.106;2023-05-15T12:49:12;99665.81;;;18.14;100.00
54978;BME280;40873;47.522;19.106;2023-05-15T12:51:46;99674.22;;;18.01;100.00
54978;BME280;40873;47.522;19.106;2023-05-15T12:54:17;99686.06;;;17.98;100.00
54978;BME280;40873;47.522;19.106;2023-05-15T12:56:46;99666.66;;;17.88;100.00
54978;BME280;40873;47.522;19.106;2023-05-15T12:59:13;99659.09;;;17.84;100.00
54978;BME280;40873;47.522;19.106;2023-05-15T13:01:41;99654.94;;;17.81;100.00
54978;BME280;40873;47.522;19.106;2023-05-15T13:04:08;99668.47;;;17.88;100.00
54978;BME280;40873;47.522;19.106;2023-05-15T13:06:39;99655.53;;;18.01;100.00
54978;BME280;40873;47.522;19.106;2023-05-15T13:09:13;99656.97;;;18.13;100.00